Time;durP1;ratioP1;P1;durP2;ratioP2;P2;SDS_P1;SDS_P2;PMS_P1;PMS_P2;Temp;Humidity;BMP_temperature;BMP_pressure;BME280_temperature;BME280_humidity;BME280_pressure;Samples;Min_cycle;Max_cycle;Signal;HPM_P1;HPM_P2
2021/05/09 00:02:17;;;;;;;6.43;3.28;;;11.40;99.90;;;;;;4969167;28;20474;-52
2021/05/09 00:04:43;;;;;;;5.90;3.70;;;11.30;99.90;;;;;;4970958;28;20439;-52
2021/05/09 00:07:10;;;;;;;7.78;4.30;;;11.20;99.90;;;;;;4970009;28;20871;-57
2021/05/09 00:09:36;;;;;;;9.10;4.57;;;11.00;99.90;;;;;;4971081;28;20941;-52
2021/05/09 00:12:03;;;;;;;7.60;4.53;;;10.90;99.90;;;;;;4969712;28;20395;-52
2021/05/09 00:14:29;;;;;;;7.22;4.50;;;10.80;99.90;;;;;;4970701;28;20388;-52
2021/05/09 00:16:55;;;;;;;7.10;3.90;;;10.70;99.90;;;;;;4967200;28;20401;-54
2021/05/09 00:19:20;;;;;;;7.38;4.07;;;10.70;99.90;;;;;;4969402;28;20396;-52
2021/05/09 00:21:46;;;;;;;8.87;3.70;;;10.70;99.90;;;;;;4953763;28;20400;-52
2021/05/09 00:24:11;;;;;;;6.30;3.80;;;10.60;99.90;;;;;;4969751;28;20403;-58
2021/05/09 00:26:37;;;;;;;6.80;3.80;;;10.60;99.90;;;;;;4971057;28;20407;-52
2021/05/09 00:29:03;;;;;;;9.57;4.07;;;10.60;99.90;;;;;;4969833;28;20451;-52
2021/05/09 00:31:29;;;;;;;6.20;3.40;;;10.60;99.90;;;;;;4970086;28;20396;-52
2021/05/09 00:33:55;;;;;;;9.30;5.40;;;10.50;99.90;;;;;;4969865;28;20595;-52
2021/05/09 00:36:20;;;;;;;7.10;4.30;;;10.60;99.90;;;;;;4970064;28;20740;-52
2021/05/09 00:38:46;;;;;;;7.28;4.40;;;10.60;99.90;;;;;;4969582;28;20791;-52
2021/05/09 00:41:12;;;;;;;6.70;4.03;;;10.50;99.90;;;;;;4970141;28;20404;-57
2021/05/09 00:43:37;;;;;;;9.02;4.55;;;10.50;99.90;;;;;;4969733;28;20897;-52
2021/05/09 00:46:03;;;;;;;9.20;4.90;;;10.60;99.90;;;;;;4970773;28;20396;-52
2021/05/09 00:48:29;;;;;;;11.15;6.13;;;10.60;99.90;;;;;;4954230;28;20762;-52
2021/05/09 00:50:55;;;;;;;9.83;4.90;;;10.60;99.90;;;;;;4948961;28;20540;-52
2021/05/09 00:53:25;;;;;;;10.65;5.60;;;10.60;99.90;;;;;;4969866;28;20396;-52
2021/05/09 00:55:51;;;;;;;8.98;5.15;;;10.60;99.90;;;;;;4971004;28;20384;-52
2021/05/09 00:58:18;;;;;;;9.18;5.50;;;10.60;99.90;;;;;;4968893;28;20412;-52
2021/05/09 01:00:45;;;;;;;10.38;6.20;;;10.50;99.90;;;;;;4971278;28;20775;-52
2021/05/09 01:03:12;;;;;;;10.52;6.00;;;10.60;99.90;;;;;;4973553;28;20868;-58
2021/05/09 01:05:38;;;;;;;11.60;6.23;;;10.70;99.90;;;;;;4974001;28;20491;-53
2021/05/09 01:08:04;;;;;;;8.43;5.40;;;10.70;99.90;;;;;;4974644;28;20497;-52
2021/05/09 01:10:31;;;;;;;10.27;6.20;;;10.70;99.90;;;;;;4972058;28;20449;-52
2021/05/09 01:12:57;;;;;;;10.67;5.70;;;10.70;99.90;;;;;;4974347;28;20466;-52
2021/05/09 01:15:23;;;;;;;10.17;6.30;;;10.70;99.90;;;;;;4972174;28;20396;-52
2021/05/09 01:17:50;;;;;;;10.18;5.70;;;10.90;99.90;;;;;;4963921;28;20411;-52
2021/05/09 01:20:15;;;;;;;9.57;5.78;;;10.80;99.90;;;;;;4954429;29;20476;-53
2021/05/09 01:22:44;;;;;;;9.50;5.70;;;10.80;99.90;;;;;;4954767;29;20404;-52
2021/05/09 01:25:11;;;;;;;9.23;5.30;;;10.80;99.90;;;;;;4973260;28;20495;-52
2021/05/09 01:27:37;;;;;;;10.55;5.95;;;10.80;99.90;;;;;;4973525;28;20501;-52
2021/05/09 01:30:09;;;;;;;11.10;6.70;;;10.90;99.90;;;;;;4974006;28;20387;-52
2021/05/09 01:32:35;;;;;;;8.70;5.78;;;10.80;99.90;;;;;;4973427;28;20450;-52
2021/05/09 01:35:01;;;;;;;10.00;5.70;;;10.80;99.90;;;;;;4974053;28;20879;-52
2021/05/09 01:37:26;;;;;;;8.20;5.45;;;10.70;99.90;;;;;;4973198;28;20413;-53
2021/05/09 01:39:52;;;;;;;9.70;6.10;;;10.80;99.90;;;;;;4973752;28;21252;-52
2021/05/09 01:42:18;;;;;;;9.18;6.13;;;10.90;99.90;;;;;;4972063;28;20775;-53
2021/05/09 01:44:54;;;;;;;11.03;6.40;;;11.00;99.90;;;;;;4974198;28;20749;-52
2021/05/09 01:47:21;;;;;;;12.70;6.10;;;10.90;99.90;;;;;;4971443;28;20404;-52
2021/05/09 01:49:50;;;;;;;9.40;5.63;;;11.00;99.90;;;;;;4974178;28;20391;-52
2021/05/09 01:52:17;;;;;;;9.60;6.00;;;10.80;99.90;;;;;;4973197;28;20503;-52
2021/05/09 01:54:43;;;;;;;9.75;6.00;;;10.70;99.90;;;;;;4956373;28;20392;-54
2021/05/09 01:57:09;;;;;;;8.73;5.77;;;10.70;99.90;;;;;;4973434;28;20396;-52
2021/05/09 01:59:34;;;;;;;10.52;5.78;;;10.70;99.90;;;;;;4972386;28;20412;-52
2021/05/09 02:02:00;;;;;;;9.43;5.53;;;10.60;99.90;;;;;;4973378;28;20900;-52
2021/05/09 02:04:26;;;;;;;9.63;5.63;;;10.70;99.90;;;;;;4972747;28;20392;-52
2021/05/09 02:06:52;;;;;;;9.40;6.00;;;10.60;99.90;;;;;;4973369;28;20458;-52
2021/05/09 02:09:17;;;;;;;10.07;6.43;;;10.60;99.90;;;;;;4972618;28;20392;-52
2021/05/09 02:11:43;;;;;;;13.40;5.70;;;10.50;99.90;;;;;;4973219;28;21224;-52
2021/05/09 02:14:09;;;;;;;8.40;5.30;;;10.50;99.90;;;;;;4972883;28;20393;-52
2021/05/09 02:16:35;;;;;;;9.73;5.40;;;10.40;99.90;;;;;;4971615;28;20446;-52
2021/05/09 02:19:02;;;;;;;9.00;6.10;;;10.30;99.90;;;;;;4954109;29;20433;-52
2021/05/09 02:21:28;;;;;;;10.73;5.90;;;10.40;99.90;;;;;;4953261;29;20738;-52
2021/05/09 02:23:53;;;;;;;8.95;5.95;;;10.40;99.90;;;;;;4936917;29;20448;-52
2021/05/09 02:26:19;;;;;;;8.73;5.40;;;10.50;99.90;;;;;;4953221;29;20437;-52
2021/05/09 02:28:44;;;;;;;11.30;5.97;;;10.50;99.90;;;;;;4953795;29;20421;-52
2021/05/09 02:31:11;;;;;;;9.20;5.70;;;10.40;99.90;;;;;;4953669;29;20394;-52
2021/05/09 02:33:39;;;;;;;9.10;5.75;;;10.40;99.90;;;;;;4952917;29;20469;-52
2021/05/09 02:36:05;;;;;;;9.02;5.50;;;10.40;99.90;;;;;;4953955;29;20434;-52
2021/05/09 02:38:30;;;;;;;8.13;4.18;;;10.40;99.90;;;;;;4953023;29;20738;-52
2021/05/09 02:40:56;;;;;;;6.73;3.50;;;10.40;99.90;;;;;;4953310;29;20414;-52
2021/05/09 02:43:22;;;;;;;7.53;4.27;;;10.50;99.90;;;;;;4952648;29;20398;-52
2021/05/09 02:45:47;;;;;;;7.75;4.35;;;10.60;99.90;;;;;;4953758;29;20394;-52
2021/05/09 02:48:13;;;;;;;9.10;3.90;;;10.60;99.90;;;;;;4953348;28;20862;-57
2021/05/09 02:50:39;;;;;;;7.90;3.80;;;10.70;99.90;;;;;;4952868;29;20738;-52
2021/05/09 02:53:04;;;;;;;7.03;3.40;;;10.70;99.90;;;;;;4936404;29;20777;-52
2021/05/09 02:55:30;;;;;;;7.50;3.70;;;10.80;99.90;;;;;;4952514;29;20862;-52
2021/05/09 02:57:56;;;;;;;6.50;3.88;;;10.80;99.90;;;;;;4953307;29;20753;-52
2021/05/09 03:00:22;;;;;;;8.30;4.00;;;10.90;99.90;;;;;;4952199;29;20464;-52
2021/05/09 03:02:48;;;;;;;7.25;3.90;;;10.80;99.90;;;;;;4953210;29;20428;-52
2021/05/09 03:05:13;;;;;;;8.07;4.10;;;10.80;99.90;;;;;;4953064;29;20437;-57
2021/05/09 03:07:39;;;;;;;7.40;4.30;;;10.80;99.90;;;;;;4952637;29;20418;-52
2021/05/09 03:10:05;;;;;;;8.07;4.20;;;10.80;99.90;;;;;;4953240;29;20405;-52
2021/05/09 03:12:31;;;;;;;7.10;4.40;;;10.70;99.90;;;;;;4951826;29;20430;-52
2021/05/09 03:14:57;;;;;;;6.57;4.00;;;10.70;99.90;;;;;;4952780;29;20466;-52
2021/05/09 03:17:22;;;;;;;7.00;4.10;;;10.60;99.90;;;;;;4952351;28;20393;-52
2021/05/09 03:19:48;;;;;;;7.00;4.30;;;10.70;99.90;;;;;;4952508;29;20885;-52
2021/05/09 03:22:14;;;;;;;7.27;4.57;;;10.80;99.90;;;;;;4952981;29;20397;-57
2021/05/09 03:24:39;;;;;;;7.88;4.70;;;10.90;99.90;;;;;;4952026;28;20420;-52
2021/05/09 03:27:05;;;;;;;7.03;4.43;;;10.90;99.90;;;;;;4952817;29;20750;-52
2021/05/09 03:29:31;;;;;;;8.13;4.80;;;10.90;99.90;;;;;;4951443;29;20414;-52
2021/05/09 03:31:56;;;;;;;10.40;4.90;;;10.90;99.90;;;;;;4952887;29;20496;-52
2021/05/09 03:34:22;;;;;;;8.60;5.00;;;10.80;99.90;;;;;;4951971;29;20394;-52
2021/05/09 03:36:48;;;;;;;8.38;4.82;;;10.50;99.90;;;;;;4952191;29;20400;-52
2021/05/09 03:39:14;;;;;;;8.43;5.00;;;10.70;99.90;;;;;;4952218;29;20393;-58
2021/05/09 03:41:39;;;;;;;7.80;4.90;;;10.70;99.90;;;;;;4951822;29;20421;-52
2021/05/09 03:44:06;;;;;;;7.65;4.75;;;10.70;99.90;;;;;;4952254;29;20401;-52
2021/05/09 03:46:31;;;;;;;8.05;5.15;;;10.70;99.90;;;;;;4951774;28;20389;-51
2021/05/09 03:48:57;;;;;;;8.47;4.80;;;10.70;99.90;;;;;;4952174;29;20412;-53
2021/05/09 03:51:23;;;;;;;7.57;3.80;;;10.60;99.90;;;;;;4951670;29;20393;-51
2021/05/09 03:53:48;;;;;;;7.53;4.20;;;10.60;99.90;;;;;;4952405;29;20823;-51
2021/05/09 03:56:14;;;;;;;7.85;4.90;;;10.50;99.90;;;;;;4934689;29;20402;-56
2021/05/09 03:58:40;;;;;;;8.17;4.33;;;10.60;99.90;;;;;;4951302;29;20416;-51
2021/05/09 04:01:05;;;;;;;7.10;4.60;;;10.50;99.90;;;;;;4952291;29;20423;-51
2021/05/09 04:03:32;;;;;;;6.63;4.30;;;10.40;99.90;;;;;;4951392;29;20389;-51
2021/05/09 04:05:57;;;;;;;7.72;4.55;;;10.30;99.90;;;;;;4951767;29;20394;-51
2021/05/09 04:08:27;;;;;;;7.85;4.00;;;10.40;99.90;;;;;;4951099;29;20402;-51
2021/05/09 04:10:55;;;;;;;7.38;4.50;;;10.30;99.90;;;;;;4952316;29;20421;-51
2021/05/09 04:13:21;;;;;;;7.25;4.65;;;10.40;99.90;;;;;;4951086;29;20892;-51
2021/05/09 04:15:47;;;;;;;6.85;4.72;;;10.40;99.90;;;;;;4952376;29;20422;-51
2021/05/09 04:18:14;;;;;;;7.40;4.30;;;10.40;99.90;;;;;;4951956;28;20746;-51
2021/05/09 04:20:39;;;;;;;7.47;4.10;;;10.40;99.90;;;;;;4951468;29;20461;-51
2021/05/09 04:23:18;;;;;;;8.13;4.30;;;10.40;99.90;;;;;;4952125;29;20782;-52
2021/05/09 04:25:49;;;;;;;8.10;4.50;;;10.50;99.90;;;;;;4951995;29;20421;-51
2021/05/09 04:28:15;;;;;;;6.80;4.50;;;10.50;99.90;;;;;;4951569;29;20421;-56
2021/05/09 04:30:40;;;;;;;8.13;4.50;;;10.60;99.90;;;;;;4951363;29;20395;-51
2021/05/09 04:33:07;;;;;;;6.80;4.00;;;10.60;99.90;;;;;;4951950;29;20486;-51
2021/05/09 04:35:34;;;;;;;6.70;3.90;;;10.70;99.90;;;;;;4950454;29;20397;-51
2021/05/09 04:38:00;;;;;;;6.70;3.90;;;10.90;99.90;;;;;;4951486;29;20782;-51
2021/05/09 04:40:27;;;;;;;7.88;4.20;;;11.20;99.90;;;;;;4950815;29;20877;-51
2021/05/09 04:42:54;;;;;;;7.50;4.40;;;11.50;99.90;;;;;;4951629;29;20489;-51
2021/05/09 04:45:20;;;;;;;8.65;4.32;;;11.80;99.90;;;;;;4950961;29;20386;-51
2021/05/09 04:47:45;;;;;;;8.80;4.38;;;12.10;99.90;;;;;;4951775;28;20482;-51
2021/05/09 04:50:13;;;;;;;5.95;3.60;;;12.30;99.90;;;;;;4951971;29;20445;-51
2021/05/09 04:52:40;;;;;;;6.22;3.70;;;12.50;99.90;;;;;;4950902;29;20382;-51
2021/05/09 04:55:07;;;;;;;7.30;4.57;;;12.70;99.90;;;;;;4951863;29;20386;-53
2021/05/09 04:57:33;;;;;;;8.63;4.20;;;13.00;99.90;;;;;;4950602;29;20386;-51
2021/05/09 05:00:04;;;;;;;7.63;4.00;;;13.60;99.90;;;;;;4951459;29;20532;-51
2021/05/09 05:02:30;;;;;;;6.65;4.20;;;14.30;99.90;;;;;;4950861;29;20394;-52
2021/05/09 05:04:55;;;;;;;6.50;3.70;;;15.10;99.90;;;;;;4951413;29;20402;-52
2021/05/09 05:07:21;;;;;;;7.80;4.10;;;15.60;99.90;;;;;;4950958;29;20390;-52
2021/05/09 05:09:47;;;;;;;7.10;4.30;;;16.30;99.90;;;;;;4951509;29;20514;-52
2021/05/09 05:12:13;;;;;;;6.80;4.07;;;16.60;99.90;;;;;;4951429;29;20540;-51
2021/05/09 05:14:38;;;;;;;6.38;3.45;;;17.40;99.90;;;;;;4950723;29;20382;-52
2021/05/09 05:17:05;;;;;;;7.38;4.18;;;18.10;99.90;;;;;;4951565;28;20391;-52
2021/05/09 05:19:32;;;;;;;7.88;3.95;;;18.80;99.90;;;;;;4933307;29;20766;-52
2021/05/09 05:21:57;;;;;;;7.68;3.80;;;18.70;99.90;;;;;;4951357;29;20409;-52
2021/05/09 05:24:23;;;;;;;6.93;4.10;;;18.30;99.90;;;;;;4950850;29;20386;-52
2021/05/09 05:26:49;;;;;;;6.72;3.90;;;17.60;99.90;;;;;;4950786;29;20408;-51
2021/05/09 05:29:15;;;;;;;6.57;3.93;;;17.00;99.90;;;;;;4951268;29;20424;-52
2021/05/09 05:31:41;;;;;;;8.10;4.35;;;17.00;99.90;;;;;;4950594;29;20758;-52
2021/05/09 05:34:07;;;;;;;6.80;3.60;;;17.40;99.90;;;;;;4950887;29;20394;-52
2021/05/09 05:36:32;;;;;;;7.72;4.18;;;18.20;99.90;;;;;;4950472;29;20388;-52
2021/05/09 05:38:59;;;;;;;8.57;4.20;;;18.50;99.90;;;;;;4951417;29;20398;-52
2021/05/09 05:41:25;;;;;;;7.40;4.28;;;18.40;99.90;;;;;;4950272;29;20489;-52
2021/05/09 05:43:50;;;;;;;6.85;4.40;;;18.20;99.90;;;;;;4951009;29;20754;-52
2021/05/09 05:46:16;;;;;;;8.25;4.50;;;18.40;99.90;;;;;;4951197;28;20393;-56
2021/05/09 05:48:42;;;;;;;6.70;3.70;;;19.20;99.90;;;;;;4952289;28;20413;-52
2021/05/09 05:51:07;;;;;;;6.20;3.80;;;20.30;99.90;;;;;;4954355;29;20429;-53
2021/05/09 05:53:33;;;;;;;7.10;3.60;;;21.20;98.20;;;;;;4943058;28;20409;-59
2021/05/09 05:55:59;;;;;;;6.20;3.60;;;22.10;95.90;;;;;;4950498;28;20435;-55
2021/05/09 05:58:24;;;;;;;6.80;2.93;;;23.00;92.80;;;;;;4956250;28;20413;-55
2021/05/09 06:00:51;;;;;;;5.68;2.95;;;23.50;90.40;;;;;;4955442;28;20422;-55
2021/05/09 06:03:17;;;;;;;5.72;3.05;;;24.40;84.90;;;;;;4973289;28;20406;-63
2021/05/09 06:05:44;;;;;;;7.85;3.95;;;24.70;80.30;;;;;;4972925;28;20388;-55
2021/05/09 06:08:10;;;;;;;7.38;3.45;;;25.10;79.10;;;;;;4967402;28;20396;-53
2021/05/09 06:10:35;;;;;;;6.13;2.80;;;25.90;77.20;;;;;;4963680;28;20462;-55
2021/05/09 06:13:01;;;;;;;6.57;2.50;;;26.70;71.00;;;;;;4963624;28;20895;-55
2021/05/09 06:15:28;;;;;;;5.50;2.50;;;27.40;67.70;;;;;;4961245;28;20533;-56
2021/05/09 06:17:54;;;;;;;5.00;2.20;;;27.60;66.00;;;;;;4969876;28;20384;-55
2021/05/09 06:20:20;;;;;;;5.10;2.10;;;27.00;64.30;;;;;;4972480;28;20474;-66
2021/05/09 06:22:45;;;;;;;6.25;2.10;;;26.00;66.00;;;;;;4972518;28;20399;-55
2021/05/09 06:25:11;;;;;;;5.50;2.40;;;26.10;67.40;;;;;;4972450;28;20449;-55
2021/05/09 06:27:37;;;;;;;5.00;2.10;;;25.90;67.80;;;;;;4961060;28;20425;-56
2021/05/09 06:30:04;;;;;;;5.40;2.10;;;26.00;67.80;;;;;;4953525;28;20414;-55
2021/05/09 06:32:30;;;;;;;6.35;2.53;;;25.60;68.10;;;;;;4968612;28;21228;-56
2021/05/09 06:34:56;;;;;;;6.63;2.40;;;25.90;67.40;;;;;;4972683;28;20463;-54
2021/05/09 06:37:21;;;;;;;5.32;2.60;;;25.60;68.50;;;;;;4972478;28;20459;-66
2021/05/09 06:39:47;;;;;;;6.05;2.33;;;25.20;70.80;;;;;;4972387;28;20741;-55
2021/05/09 06:42:13;;;;;;;6.07;2.40;;;25.00;69.30;;;;;;4972979;28;20400;-64
2021/05/09 06:44:53;;;;;;;5.40;2.00;;;25.20;70.40;;;;;;4971837;28;20883;-56
2021/05/09 06:47:19;;;;;;;6.40;2.10;;;25.50;67.40;;;;;;4972519;28;20537;-68
2021/05/09 06:49:44;;;;;;;5.73;2.33;;;25.90;66.90;;;;;;4971904;28;20899;-56
2021/05/09 06:52:10;;;;;;;6.40;2.00;;;26.50;64.80;;;;;;4972489;28;20806;-56
2021/05/09 06:54:36;;;;;;;5.03;1.70;;;27.00;60.80;;;;;;4971607;28;20483;-56
2021/05/09 06:57:03;;;;;;;6.20;2.30;;;27.30;60.60;;;;;;4971412;28;20396;-56
2021/05/09 06:59:30;;;;;;;5.00;1.90;;;27.80;59.80;;;;;;4971128;28;20494;-57
2021/05/09 07:01:56;;;;;;;4.57;1.83;;;27.50;57.70;;;;;;4970214;28;20523;-56
2021/05/09 07:04:21;;;;;;;4.90;1.80;;;27.20;58.00;;;;;;4954134;28;20939;-66
2021/05/09 07:06:47;;;;;;;5.20;1.70;;;27.30;57.40;;;;;;4964523;28;20789;-59
2021/05/09 07:09:13;;;;;;;5.75;1.80;;;27.50;57.60;;;;;;4962458;28;20394;-57
2021/05/09 07:11:39;;;;;;;4.47;1.60;;;27.90;56.40;;;;;;4960289;28;21108;-56
2021/05/09 07:14:05;;;;;;;4.73;1.80;;;27.70;55.50;;;;;;4962902;28;20422;-56
2021/05/09 07:16:35;;;;;;;4.70;1.80;;;27.00;55.90;;;;;;4961229;28;20402;-58
2021/05/09 07:19:03;;;;;;;4.60;1.70;;;27.40;56.70;;;;;;4961194;28;20395;-59
2021/05/09 07:21:35;;;;;;;4.05;1.40;;;27.60;55.10;;;;;;4960760;28;20404;-56
2021/05/09 07:24:00;;;;;;;5.10;1.90;;;27.30;54.40;;;;;;4961974;28;20437;-57
2021/05/09 07:26:26;;;;;;;10.60;1.80;;;27.60;56.00;;;;;;4961413;28;20424;-56
2021/05/09 07:28:52;;;;;;;5.00;1.70;;;28.70;53.90;;;;;;4962119;28;20419;-58
2021/05/09 07:31:18;;;;;;;5.17;1.93;;;29.00;51.70;;;;;;4960936;28;20419;-58
2021/05/09 07:33:43;;;;;;;5.20;2.10;;;28.70;52.70;;;;;;4961252;28;20479;-57
2021/05/09 07:36:09;;;;;;;5.07;1.87;;;29.50;51.40;;;;;;4961964;28;20695;-57
2021/05/09 07:38:35;;;;;;;5.10;1.52;;;30.30;49.90;;;;;;4960700;28;20896;-58
2021/05/09 07:41:01;;;;;;;4.38;1.52;;;30.90;47.70;;;;;;4961910;28;20415;-57
2021/05/09 07:43:28;;;;;;;5.68;2.00;;;30.00;47.30;;;;;;4960966;28;20398;-57
2021/05/09 07:45:53;;;;;;;5.53;1.67;;;28.60;49.80;;;;;;4961122;28;20920;-57
2021/05/09 07:48:19;;;;;;;4.80;1.50;;;28.60;50.50;;;;;;4959657;28;20401;-67
2021/05/09 07:50:45;;;;;;;4.40;1.70;;;29.10;49.50;;;;;;4961615;28;20432;-57
2021/05/09 07:53:13;;;;;;;4.80;1.90;;;29.40;49.20;;;;;;4961330;28;20382;-56
2021/05/09 07:55:40;;;;;;;4.90;1.60;;;29.20;49.00;;;;;;4959561;28;20659;-58
2021/05/09 07:58:22;;;;;;;5.80;1.90;;;28.90;49.80;;;;;;4961744;28;20974;-57
2021/05/09 08:00:49;;;;;;;5.60;1.80;;;29.10;49.30;;;;;;4962070;28;20459;-66
2021/05/09 08:03:15;;;;;;;4.77;1.90;;;29.70;49.50;;;;;;4959603;28;20400;-57
2021/05/09 08:05:41;;;;;;;4.82;1.70;;;29.80;48.60;;;;;;4963651;28;20420;-57
2021/05/09 08:08:07;;;;;;;4.63;1.65;;;30.70;48.50;;;;;;4971199;28;20459;-56
2021/05/09 08:10:36;;;;;;;5.13;2.03;;;31.60;47.20;;;;;;4964125;28;20887;-57
2021/05/09 08:13:04;;;;;;;6.35;1.60;;;31.20;46.70;;;;;;4965477;28;20407;-56
2021/05/09 08:15:30;;;;;;;4.70;1.70;;;30.90;46.40;;;;;;4968213;28;20823;-58
2021/05/09 08:17:56;;;;;;;5.63;1.63;;;31.50;45.50;;;;;;4971238;28;20388;-56
2021/05/09 08:20:22;;;;;;;5.70;1.60;;;31.70;45.30;;;;;;4970250;28;20426;-66
2021/05/09 08:22:48;;;;;;;4.95;1.50;;;32.60;45.60;;;;;;4969221;28;20416;-57
2021/05/09 08:25:16;;;;;;;4.73;1.80;;;33.10;42.30;;;;;;4970920;28;20392;-57
2021/05/09 08:27:42;;;;;;;4.80;1.70;;;32.30;42.70;;;;;;4969578;28;20434;-57
2021/05/09 08:30:08;;;;;;;6.05;1.70;;;32.50;42.90;;;;;;4953642;28;20412;-61
2021/05/09 08:32:33;;;;;;;5.00;1.80;;;32.70;44.00;;;;;;4970198;28;20380;-57
2021/05/09 08:35:00;;;;;;;4.10;1.40;;;32.50;42.10;;;;;;4964832;28;20468;-57
2021/05/09 08:37:26;;;;;;;5.13;1.65;;;32.50;41.90;;;;;;4959909;28;20400;-61
2021/05/09 08:39:52;;;;;;;4.45;1.77;;;32.30;42.00;;;;;;4960571;28;20484;-58
2021/05/09 08:42:19;;;;;;;5.03;1.75;;;32.10;42.40;;;;;;4961149;28;20423;-57
2021/05/09 08:44:50;;;;;;;4.10;1.52;;;32.70;41.60;;;;;;4960633;28;20403;-59
2021/05/09 08:47:21;;;;;;;4.25;1.40;;;32.50;41.70;;;;;;4961756;28;20457;-61
2021/05/09 08:49:51;;;;;;;5.72;1.70;;;32.80;42.10;;;;;;4959624;28;20469;-57
2021/05/09 08:52:18;;;;;;;5.00;1.77;;;33.60;41.40;;;;;;4964467;28;20396;-57
2021/05/09 08:54:44;;;;;;;4.47;1.70;;;33.60;40.60;;;;;;4962710;28;20455;-58
2021/05/09 08:57:10;;;;;;;4.70;1.60;;;33.60;40.70;;;;;;4959671;28;20392;-57
2021/05/09 08:59:37;;;;;;;5.90;1.50;;;33.70;41.70;;;;;;4960361;28;20403;-58
2021/05/09 09:02:02;;;;;;;4.32;1.40;;;34.10;40.80;;;;;;4961866;28;20402;-58
2021/05/09 09:04:44;;;;;;;5.18;1.55;;;35.10;39.50;;;;;;4959024;28;20459;-59
2021/05/09 09:07:12;;;;;;;4.60;1.60;;;35.40;39.60;;;;;;4961780;28;20391;-55
2021/05/09 09:09:40;;;;;;;5.20;1.50;;;35.30;38.90;;;;;;4958438;28;20892;-57
2021/05/09 09:12:06;;;;;;;4.43;1.65;;;35.30;39.30;;;;;;4957536;28;20401;-57
2021/05/09 09:14:32;;;;;;;4.30;1.60;;;35.80;38.80;;;;;;4956807;28;20489;-58
2021/05/09 09:17:15;;;;;;;5.00;1.70;;;36.00;38.10;;;;;;4959164;28;20399;-58
2021/05/09 09:19:59;;;;;;;4.60;1.60;;;36.20;38.40;;;;;;4963885;28;20950;-58
2021/05/09 09:22:25;;;;;;;5.50;1.70;;;36.90;37.30;;;;;;4954062;28;20405;-56
2021/05/09 09:25:08;;;;;;;4.90;1.70;;;36.90;37.20;;;;;;4958122;28;20410;-58
2021/05/09 09:27:40;;;;;;;5.70;1.90;;;36.90;37.40;;;;;;4956697;28;20404;-57
2021/05/09 09:30:07;;;;;;;4.60;1.70;;;36.70;38.00;;;;;;4965315;28;20417;-58
2021/05/09 09:32:32;;;;;;;5.00;1.77;;;37.20;38.60;;;;;;4958718;28;20932;-58
2021/05/09 09:34:59;;;;;;;6.60;1.97;;;37.50;37.00;;;;;;4954453;29;20394;-58
2021/05/09 09:37:32;;;;;;;4.80;1.60;;;38.20;37.00;;;;;;4953439;29;20389;-59
2021/05/09 09:39:59;;;;;;;5.20;1.83;;;37.50;37.30;;;;;;4956643;28;20431;-57
2021/05/09 09:42:47;;;;;;;6.18;1.98;;;37.40;37.00;;;;;;4961731;28;20410;-61
2021/05/09 09:45:12;;;;;;;6.20;1.90;;;36.80;36.10;;;;;;4959313;28;20393;-58
2021/05/09 09:48:02;;;;;;;4.53;1.63;;;36.50;37.00;;;;;;4953702;29;20390;-58
2021/05/09 09:50:41;;;;;;;5.00;1.80;;;35.60;38.70;;;;;;4953721;29;20473;-59
2021/05/09 09:53:27;;;;;;;4.80;1.80;;;35.20;37.90;;;;;;4953642;29;20723;-57
2021/05/09 09:56:02;;;;;;;4.88;1.60;;;35.20;39.00;;;;;;4954045;29;20393;-58
2021/05/09 09:58:50;;;;;;;4.55;1.70;;;35.70;36.00;;;;;;4953442;29;20405;-58
2021/05/09 10:01:23;;;;;;;5.40;1.80;;;36.30;37.20;;;;;;4960309;28;20419;-59
2021/05/09 10:03:50;;;;;;;6.20;2.10;;;36.70;35.90;;;;;;4973511;28;20404;-57
2021/05/09 10:06:16;;;;;;;5.32;2.00;;;35.90;38.00;;;;;;4973246;28;20389;-59
2021/05/09 10:08:42;;;;;;;4.23;1.40;;;35.00;35.20;;;;;;4972305;28;20380;-57
2021/05/09 10:11:09;;;;;;;4.60;1.58;;;34.50;37.00;;;;;;4955521;28;20400;-57
2021/05/09 10:13:35;;;;;;;6.20;1.40;;;34.00;36.00;;;;;;4972880;28;20388;-57
2021/05/09 10:16:02;;;;;;;5.90;1.67;;;33.10;38.60;;;;;;4972036;28;20403;-57
2021/05/09 10:18:28;;;;;;;4.00;1.30;;;33.40;38.00;;;;;;4972340;28;20454;-58
2021/05/09 10:20:55;;;;;;;5.10;1.40;;;33.80;36.50;;;;;;4972879;28;20427;-57
2021/05/09 10:23:22;;;;;;;4.90;1.40;;;32.90;37.30;;;;;;4972877;28;20384;-65
2021/05/09 10:25:56;;;;;;;4.90;1.60;;;31.40;38.20;;;;;;4972668;28;20392;-57
2021/05/09 10:28:38;;;;;;;5.50;1.17;;;32.00;38.40;;;;;;4972221;28;20444;-65
2021/05/09 10:31:05;;;;;;;4.10;1.30;;;32.40;37.30;;;;;;4961695;28;20496;-57
2021/05/09 10:33:42;;;;;;;7.10;1.40;;;32.80;39.00;;;;;;4961779;28;20397;-57
2021/05/09 10:36:08;;;;;;;4.10;1.20;;;32.30;36.40;;;;;;4961310;28;20399;-57
2021/05/09 10:39:12;;;;;;;4.20;1.17;;;32.00;38.40;;;;;;4943635;28;20400;-57
2021/05/09 10:41:58;;;;;;;4.77;1.23;;;31.30;38.10;;;;;;4963495;28;20412;-57
2021/05/09 10:44:46;;;;;;;4.97;1.50;;;31.00;36.40;;;;;;4960187;28;20396;-66
2021/05/09 10:47:31;;;;;;;6.70;1.60;;;31.30;39.40;;;;;;4961913;28;20433;-57
2021/05/09 10:50:15;;;;;;;6.47;1.40;;;31.10;40.00;;;;;;4958360;28;20440;-57
2021/05/09 10:52:41;;;;;;;4.70;1.30;;;31.10;40.00;;;;;;4963988;28;20415;-57
2021/05/09 10:55:35;;;;;;;4.80;1.20;;;30.80;39.90;;;;;;4962912;28;20394;-58
2021/05/09 10:58:05;;;;;;;5.00;1.30;;;30.70;42.00;;;;;;4963826;28;20410;-60
2021/05/09 11:00:55;;;;;;;4.72;1.30;;;30.70;39.60;;;;;;4958179;28;20473;-59
2021/05/09 11:03:36;;;;;;;4.90;1.15;;;29.70;41.00;;;;;;4960364;28;20484;-57
2021/05/09 11:06:10;;;;;;;4.72;1.33;;;30.30;40.10;;;;;;4952582;28;20390;-57
2021/05/09 11:08:42;;;;;;;5.20;1.33;;;30.40;40.00;;;;;;4959586;28;20768;-57
2021/05/09 11:11:25;;;;;;;4.93;1.42;;;30.50;41.20;;;;;;4955266;28;20413;-58
2021/05/09 11:14:12;;;;;;;4.10;1.30;;;30.80;41.50;;;;;;4952370;29;20401;-57
2021/05/09 11:16:43;;;;;;;4.95;1.70;;;30.70;40.20;;;;;;4952022;29;20921;-57
2021/05/09 11:19:10;;;;;;;7.40;1.58;;;30.50;41.60;;;;;;4953034;29;20866;-57
2021/05/09 11:21:40;;;;;;;4.78;1.30;;;30.70;41.80;;;;;;4951890;29;20414;-58
2021/05/09 11:24:08;;;;;;;5.75;1.48;;;30.60;41.10;;;;;;4952888;29;20394;-57
2021/05/09 11:26:39;;;;;;;4.70;1.30;;;30.60;40.20;;;;;;4951446;29;20393;-57
2021/05/09 11:29:16;;;;;;;4.28;1.20;;;30.70;39.10;;;;;;4952542;29;20421;-57
2021/05/09 11:31:43;;;;;;;4.80;1.30;;;30.90;40.80;;;;;;4951649;29;20398;-57
2021/05/09 11:34:10;;;;;;;4.88;1.20;;;30.60;40.00;;;;;;4952516;29;20442;-57
2021/05/09 11:36:37;;;;;;;5.10;1.25;;;30.40;39.20;;;;;;4951427;28;20393;-57
2021/05/09 11:39:20;;;;;;;4.80;1.30;;;30.30;39.60;;;;;;4952644;29;20485;-57
2021/05/09 11:41:59;;;;;;;4.00;1.30;;;30.20;39.00;;;;;;4953878;28;20539;-57
2021/05/09 11:44:32;;;;;;;6.10;2.00;;;30.10;38.00;;;;;;4971110;28;20396;-66
2021/05/09 11:46:58;;;;;;;5.20;1.50;;;30.50;40.30;;;;;;4965689;28;20431;-60
2021/05/09 11:49:27;;;;;;;4.60;1.17;;;30.30;39.50;;;;;;4960088;28;20418;-66
2021/05/09 11:51:55;;;;;;;3.80;1.30;;;30.10;39.10;;;;;;4960686;28;20788;-57
2021/05/09 11:54:23;;;;;;;4.40;1.20;;;30.20;40.20;;;;;;4959515;28;20481;-60
2021/05/09 11:56:51;;;;;;;5.43;1.38;;;30.10;40.10;;;;;;4964352;28;20393;-58
2021/05/09 11:59:35;;;;;;;4.30;1.10;;;30.40;39.10;;;;;;4963677;28;20411;-57
2021/05/09 12:02:21;;;;;;;3.80;1.30;;;30.50;39.50;;;;;;4958112;28;20772;-58
2021/05/09 12:04:56;;;;;;;6.70;1.30;;;30.60;39.70;;;;;;4951189;29;20398;-58
2021/05/09 12:07:30;;;;;;;4.40;1.40;;;30.70;40.90;;;;;;4934519;29;20425;-58
2021/05/09 12:10:06;;;;;;;4.80;1.50;;;30.60;38.70;;;;;;4952010;29;20398;-51
2021/05/09 12:12:34;;;;;;;6.60;1.30;;;30.50;39.20;;;;;;4950892;29;20477;-52
2021/05/09 12:15:09;;;;;;;4.25;1.10;;;30.50;40.50;;;;;;4951920;29;20382;-52
2021/05/09 12:17:48;;;;;;;4.20;1.10;;;30.70;39.00;;;;;;4951139;29;20745;-52
2021/05/09 12:20:44;;;;;;;4.75;1.15;;;30.80;38.80;;;;;;4951774;29;20410;-51
2021/05/09 12:23:15;;;;;;;4.25;1.27;;;30.80;39.30;;;;;;4946994;29;20765;-52
2021/05/09 12:25:46;;;;;;;4.65;1.27;;;30.90;38.70;;;;;;4950466;29;20386;-52
2021/05/09 12:28:29;;;;;;;5.00;1.20;;;31.00;38.00;;;;;;4951699;29;20430;-52
2021/05/09 12:31:06;;;;;;;4.65;1.15;;;31.00;37.10;;;;;;4951505;29;20405;-52
2021/05/09 12:33:32;;;;;;;5.27;1.30;;;31.10;38.60;;;;;;4950801;29;20390;-52
2021/05/09 12:35:59;;;;;;;5.80;1.30;;;31.00;38.80;;;;;;4951524;29;20881;-52
2021/05/09 12:38:34;;;;;;;4.10;1.25;;;31.00;40.00;;;;;;4950751;29;20421;-62
2021/05/09 12:41:01;;;;;;;6.90;1.60;;;30.80;39.40;;;;;;4968558;28;20424;-52
2021/05/09 12:43:43;;;;;;;4.30;1.20;;;31.00;39.80;;;;;;4969504;28;20466;-61
2021/05/09 12:46:09;;;;;;;4.32;1.38;;;30.90;39.90;;;;;;4955502;28;20401;-51
2021/05/09 12:48:34;;;;;;;4.70;1.30;;;30.70;39.60;;;;;;4953996;28;20419;-52
2021/05/09 12:51:05;;;;;;;5.97;1.60;;;30.90;36.60;;;;;;4969905;28;20392;-52
2021/05/09 12:53:50;;;;;;;4.10;1.30;;;31.00;36.10;;;;;;4969407;28;20399;-53